createdAt,value
2019-02-04T00:01:42.427Z,6.17
2019-02-04T00:04:10.999Z,5.90
2019-02-04T00:06:39.588Z,5.70
2019-02-04T00:09:09.011Z,4.97
2019-02-04T00:11:37.592Z,5.70
2019-02-04T00:14:06.284Z,5.90
2019-02-04T00:16:40.741Z,5.93
2019-02-04T00:19:05.237Z,5.50
2019-02-04T00:21:33.827Z,5.23
2019-02-04T00:24:02.499Z,6.73
2019-02-04T00:26:31.162Z,5.80
2019-02-04T00:28:59.815Z,6.20
2019-02-04T00:31:28.677Z,6.47
2019-02-04T00:33:57.320Z,5.97
2019-02-04T00:36:25.899Z,6.13
2019-02-04T00:38:55.160Z,6.60
2019-02-04T00:41:23.749Z,6.33
2019-02-04T00:43:52.333Z,5.10
2019-02-04T00:46:20.958Z,5.73
2019-02-04T00:48:49.608Z,5.37
2019-02-04T00:51:18.319Z,5.97
2019-02-04T00:53:47.110Z,6.47
2019-02-04T00:56:15.688Z,7.70
2019-02-04T00:58:44.293Z,5.90
2019-02-04T01:01:12.952Z,5.93
2019-02-04T01:03:41.652Z,6.80
2019-02-04T01:06:10.219Z,6.67
2019-02-04T01:08:38.791Z,5.87
2019-02-04T01:11:07.384Z,6.90
2019-02-04T01:13:35.963Z,7.33
2019-02-04T01:16:04.876Z,6.17
2019-02-04T01:18:33.454Z,6.07
2019-02-04T01:21:02.036Z,6.90
2019-02-04T01:23:30.624Z,5.10
2019-02-04T01:25:59.299Z,6.40
2019-02-04T01:28:27.908Z,6.03
2019-02-04T01:30:56.651Z,6.47
2019-02-04T01:33:25.219Z,5.70
2019-02-04T01:35:53.814Z,6.33
2019-02-04T01:38:22.404Z,6.67
2019-02-04T01:40:50.982Z,7.30
2019-02-04T01:43:19.662Z,7.00
2019-02-04T01:45:48.779Z,6.70
2019-02-04T01:48:17.347Z,7.37
2019-02-04T01:50:45.947Z,7.40
2019-02-04T01:53:15.760Z,7.53
2019-02-04T01:55:44.329Z,6.80
2019-02-04T01:58:12.912Z,7.10
2019-02-04T02:00:41.817Z,6.90
2019-02-04T02:03:10.467Z,6.97
2019-02-04T02:05:39.047Z,6.73
2019-02-04T02:08:27.288Z,7.43
2019-02-04T02:10:56.277Z,7.50
2019-02-04T02:13:24.844Z,7.10
2019-02-04T02:15:53.409Z,6.63
2019-02-04T02:18:22.026Z,7.10
2019-02-04T02:20:50.604Z,7.20
2019-02-04T02:23:19.241Z,7.33
2019-02-04T02:25:48.647Z,7.07
2019-02-04T02:28:17.296Z,6.67
2019-02-04T02:30:45.871Z,8.03
2019-02-04T02:33:14.440Z,7.10
2019-02-04T02:35:43.016Z,7.60
2019-02-04T02:38:11.622Z,6.93
2019-02-04T02:40:40.730Z,7.17
2019-02-04T02:43:11.631Z,6.90
2019-02-04T02:45:39.670Z,6.90
2019-02-04T02:48:08.242Z,6.90
2019-02-04T02:50:37.080Z,7.23
2019-02-04T02:53:05.649Z,7.23
2019-02-04T02:55:34.231Z,8.10
2019-02-04T02:58:02.817Z,7.00
2019-02-04T03:00:31.400Z,6.90
2019-02-04T03:02:59.979Z,7.20
2019-02-04T03:05:28.559Z,6.37
2019-02-04T03:07:57.162Z,6.33
2019-02-04T03:10:31.005Z,6.37
2019-02-04T03:12:59.701Z,7.10
2019-02-04T03:15:28.259Z,6.20
2019-02-04T03:17:56.834Z,6.90
2019-02-04T03:20:25.395Z,6.17
2019-02-04T03:22:53.987Z,6.17
2019-02-04T03:25:22.975Z,6.23
2019-02-04T03:27:51.607Z,7.40
2019-02-04T03:30:28.493Z,7.60
2019-02-04T03:32:57.100Z,6.53
2019-02-04T03:35:25.675Z,6.90
2019-02-04T03:37:54.263Z,6.80
2019-02-04T03:40:24.784Z,6.00
2019-02-04T03:42:53.372Z,6.50
2019-02-04T03:45:22.084Z,7.60
2019-02-04T03:48:03.811Z,8.03
2019-02-04T03:50:20.962Z,7.20
2019-02-04T03:52:50.262Z,7.10
2019-02-04T03:55:18.879Z,7.87
2019-02-04T03:57:47.492Z,6.30
2019-02-04T04:00:18.637Z,6.60
2019-02-04T04:02:49.196Z,6.73
2019-02-04T04:05:18.119Z,5.70
2019-02-04T04:07:47.109Z,6.70
2019-02-04T04:10:17.325Z,6.30
2019-02-04T04:12:45.986Z,5.80
2019-02-04T04:15:14.699Z,5.87
2019-02-04T04:17:43.276Z,5.57
2019-02-04T04:20:13.832Z,5.10
2019-02-04T04:22:42.443Z,5.57
2019-02-04T04:25:12.400Z,4.67
2019-02-04T04:27:40.987Z,5.23
2019-02-04T04:30:27.733Z,5.20
2019-02-04T04:32:56.688Z,4.47
2019-02-04T04:35:25.267Z,4.40
2019-02-04T04:37:53.839Z,4.13
2019-02-04T04:40:22.795Z,4.40
2019-02-04T04:42:51.519Z,4.50
2019-02-04T04:45:21.755Z,4.73
2019-02-04T04:47:50.656Z,3.97
2019-02-04T04:50:19.244Z,4.17
2019-02-04T04:52:50.595Z,5.47
2019-02-04T04:55:26.640Z,4.87
2019-02-04T04:57:55.273Z,4.23
2019-02-04T05:00:27.062Z,4.97
2019-02-04T05:02:55.652Z,5.80
2019-02-04T05:05:24.257Z,5.47
2019-02-04T05:07:52.908Z,5.23
2019-02-04T05:10:21.514Z,4.80
2019-02-04T05:12:50.223Z,4.97
2019-02-04T05:15:21.320Z,5.67
2019-02-04T05:17:52.432Z,5.17
2019-02-04T05:20:20.222Z,5.40
2019-02-04T05:22:49.099Z,4.97
2019-02-04T05:25:17.798Z,5.30
2019-02-04T05:27:46.457Z,5.53
2019-02-04T05:30:16.892Z,4.97
2019-02-04T05:32:45.471Z,5.20
2019-02-04T05:35:14.115Z,4.97
2019-02-04T05:37:42.679Z,5.97
2019-02-04T05:40:12.819Z,4.90
2019-02-04T05:42:41.419Z,4.80
2019-02-04T05:45:10.923Z,4.57
2019-02-04T05:47:39.495Z,5.37
2019-02-04T05:50:10.586Z,5.03
2019-02-04T05:52:39.204Z,4.67
2019-02-04T05:55:07.948Z,5.40
2019-02-04T05:57:36.536Z,5.10
2019-02-04T06:00:06.158Z,5.67
2019-02-04T06:02:34.741Z,5.93
2019-02-04T06:05:03.351Z,5.50
2019-02-04T06:07:31.956Z,6.00
2019-02-04T06:10:00.514Z,5.40
2019-02-04T06:12:29.097Z,6.23
2019-02-04T06:14:57.678Z,5.70
2019-02-04T06:17:26.240Z,6.47
2019-02-04T06:19:54.817Z,6.43
2019-02-04T06:22:23.403Z,6.73
2019-02-04T06:24:51.975Z,7.33
2019-02-04T06:27:20.869Z,6.67
2019-02-04T06:29:49.813Z,6.20
2019-02-04T06:32:18.388Z,6.20
2019-02-04T06:34:47.057Z,6.10
2019-02-04T06:37:15.651Z,6.30
2019-02-04T06:39:44.294Z,5.73
2019-02-04T06:42:12.936Z,6.80
2019-02-04T06:44:41.893Z,7.13
2019-02-04T06:47:10.464Z,6.33
2019-02-04T06:49:39.045Z,5.53
2019-02-04T06:52:07.603Z,6.20
2019-02-04T06:54:36.193Z,5.87
2019-02-04T06:57:04.838Z,5.67
2019-02-04T06:59:33.815Z,6.47
2019-02-04T07:02:02.394Z,6.33
2019-02-04T07:04:31.063Z,5.00
2019-02-04T07:06:59.675Z,6.40
2019-02-04T07:09:28.259Z,6.40
2019-02-04T07:11:56.848Z,5.90
2019-02-04T07:14:25.516Z,4.40
2019-02-04T07:16:54.092Z,6.40
2019-02-04T07:19:24.677Z,6.53
2019-02-04T07:21:53.012Z,5.73
2019-02-04T07:24:21.597Z,5.80
2019-02-04T07:26:50.245Z,6.23
2019-02-04T07:29:18.903Z,5.50
2019-02-04T07:31:48.059Z,5.97
2019-02-04T07:34:16.731Z,5.10
2019-02-04T07:36:45.329Z,5.73
2019-02-04T07:39:13.896Z,6.40
2019-02-04T07:41:42.534Z,6.27
2019-02-04T07:44:11.172Z,6.00
2019-02-04T07:46:40.067Z,6.30
2019-02-04T07:49:08.916Z,6.60
2019-02-04T07:51:37.484Z,6.07
2019-02-04T07:54:06.071Z,6.63
2019-02-04T07:56:34.886Z,6.53
2019-02-04T07:59:03.508Z,5.93
2019-02-04T08:01:32.514Z,6.50
2019-02-04T08:04:01.087Z,7.00
2019-02-04T08:06:29.663Z,6.60
2019-02-04T08:08:58.241Z,6.80
2019-02-04T08:11:26.968Z,6.47
2019-02-04T08:13:55.551Z,6.70
2019-02-04T08:16:24.127Z,6.40
2019-02-04T08:18:52.728Z,6.23
2019-02-04T08:21:21.290Z,6.63
2019-02-04T08:23:49.958Z,6.33
2019-02-04T08:26:18.567Z,6.43
2019-02-04T08:28:47.313Z,6.07
2019-02-04T08:31:15.880Z,6.33
2019-02-04T08:33:44.443Z,6.23
2019-02-04T08:36:13.063Z,6.13
2019-02-04T08:38:44.039Z,5.73
2019-02-04T08:41:12.605Z,6.73
2019-02-04T08:43:41.461Z,5.67
2019-02-04T08:46:10.041Z,6.03
2019-02-04T08:48:39.100Z,5.37
2019-02-04T08:51:07.693Z,5.33
2019-02-04T08:53:36.284Z,5.10
2019-02-04T08:56:04.888Z,5.60
2019-02-04T08:58:33.813Z,5.07
2019-02-04T09:01:02.405Z,5.67
2019-02-04T09:03:31.002Z,5.03
2019-02-04T09:05:59.832Z,5.67
2019-02-04T09:08:28.458Z,4.53
2019-02-04T09:10:57.368Z,4.97
2019-02-04T09:13:26.039Z,5.20
2019-02-04T09:15:54.632Z,4.87
2019-02-04T09:18:23.203Z,5.60
2019-02-04T09:20:51.796Z,5.27
2019-02-04T09:23:20.351Z,5.40
2019-02-04T09:25:49.028Z,4.93
2019-02-04T09:28:17.672Z,4.80
2019-02-04T09:30:48.549Z,5.30
2019-02-04T09:33:19.778Z,5.97
2019-02-04T09:35:48.459Z,5.43
2019-02-04T09:38:17.052Z,5.13
2019-02-04T09:40:45.984Z,4.40
2019-02-04T09:43:14.847Z,5.03
2019-02-04T09:45:44.429Z,5.83
2019-02-04T09:48:18.972Z,5.63
2019-02-04T09:50:49.748Z,5.97
2019-02-04T09:53:18.444Z,4.83
2019-02-04T09:55:47.097Z,5.23
2019-02-04T09:58:15.659Z,5.83
2019-02-04T10:00:44.232Z,5.70
2019-02-04T10:03:13.098Z,5.27
2019-02-04T10:05:41.713Z,5.23
2019-02-04T10:08:10.315Z,6.23
2019-02-04T10:10:58.206Z,5.57
2019-02-04T10:13:26.851Z,5.80
2019-02-04T10:15:55.458Z,5.50
2019-02-04T10:18:24.145Z,5.20
2019-02-04T10:20:52.780Z,5.87
2019-02-04T10:23:21.416Z,5.80
2019-02-04T10:25:50.165Z,5.63
2019-02-04T10:28:18.803Z,5.87
2019-02-04T10:30:47.493Z,5.80
2019-02-04T10:33:16.381Z,6.07
2019-02-04T10:35:45.017Z,5.20
2019-02-04T10:38:16.383Z,5.73
2019-02-04T10:40:43.980Z,5.80
2019-02-04T10:43:12.638Z,6.13
2019-02-04T10:45:41.319Z,6.03
2019-02-04T10:48:10.174Z,5.97
2019-02-04T10:50:46.357Z,6.00
2019-02-04T10:53:10.205Z,6.40
2019-02-04T10:55:38.989Z,5.90
2019-02-04T10:58:09.229Z,6.60
2019-02-04T11:00:38.756Z,6.57
2019-02-04T11:03:07.834Z,6.23
2019-02-04T11:05:36.826Z,6.17
2019-02-04T11:08:06.168Z,6.30
2019-02-04T11:10:35.886Z,7.10
2019-02-04T11:13:09.696Z,6.53
2019-02-04T11:15:38.446Z,7.33
2019-02-04T11:18:07.369Z,7.20
2019-02-04T11:20:36.113Z,6.93
2019-02-04T11:23:05.527Z,7.73
2019-02-04T11:25:34.214Z,8.40
2019-02-04T11:28:02.831Z,8.67
2019-02-04T11:30:36.960Z,8.47
2019-02-04T11:33:05.865Z,9.80
2019-02-04T11:35:34.582Z,10.33
2019-02-04T11:38:03.239Z,10.33
2019-02-04T11:40:33.970Z,9.70
2019-02-04T11:43:02.563Z,11.03
2019-02-04T11:45:31.697Z,9.67
2019-02-04T11:48:00.332Z,9.70
2019-02-04T11:50:29.304Z,10.47
2019-02-04T11:52:57.905Z,10.93
2019-02-04T11:55:26.479Z,10.97
2019-02-04T11:57:55.051Z,9.90
2019-02-04T12:00:25.332Z,10.70
2019-02-04T12:02:54.583Z,10.57
2019-02-04T12:05:23.304Z,9.17
2019-02-04T12:07:51.960Z,11.37
2019-02-04T12:10:29.528Z,10.93
2019-02-04T12:12:58.398Z,10.87
2019-02-04T12:15:27.015Z,10.00
2019-02-04T12:17:55.607Z,11.70
2019-02-04T12:20:24.180Z,11.97
2019-02-04T12:22:52.748Z,12.07
2019-02-04T12:25:23.078Z,11.67
2019-02-04T12:27:51.995Z,12.60
2019-02-04T12:30:30.949Z,10.90
2019-02-04T12:32:59.356Z,12.20
2019-02-04T12:35:27.973Z,11.90
2019-02-04T12:38:15.863Z,12.30
2019-02-04T12:40:44.465Z,10.80
2019-02-04T12:43:13.089Z,11.03
2019-02-04T12:45:42.188Z,12.63
2019-02-04T12:48:30.162Z,12.07
2019-02-04T12:50:58.867Z,11.53
2019-02-04T12:53:27.492Z,10.07
2019-02-04T12:55:56.111Z,9.33
2019-02-04T12:58:25.048Z,12.13
2019-02-04T13:00:53.743Z,10.83
2019-02-04T13:03:22.455Z,10.50
2019-02-04T13:05:53.538Z,11.73
2019-02-04T13:08:22.123Z,11.90
2019-02-04T13:10:50.700Z,13.20
2019-02-04T13:13:21.164Z,12.20
2019-02-04T13:15:49.801Z,10.57
2019-02-04T13:18:18.536Z,11.73
2019-02-04T13:20:48.827Z,11.73
2019-02-04T13:23:17.401Z,11.90
2019-02-04T13:25:45.992Z,11.30
2019-02-04T13:28:17.686Z,12.30
2019-02-04T13:30:46.465Z,12.87
2019-02-04T13:33:15.086Z,11.00
2019-02-04T13:35:44.116Z,12.07
2019-02-04T13:38:12.740Z,12.30
2019-02-04T13:40:44.382Z,14.67
2019-02-04T13:43:12.769Z,15.30
2019-02-04T13:45:41.447Z,14.60
2019-02-04T13:48:10.554Z,12.50
2019-02-04T13:50:39.880Z,11.70
2019-02-04T13:53:08.577Z,12.00
2019-02-04T13:55:37.168Z,10.63
2019-02-04T13:58:05.898Z,12.30
2019-02-04T14:00:40.481Z,14.00
2019-02-04T14:03:09.612Z,12.13
2019-02-04T14:05:38.184Z,17.20
2019-02-04T14:08:06.844Z,14.43
2019-02-04T14:10:37.528Z,12.37
2019-02-04T14:13:06.679Z,15.77
2019-02-04T14:15:35.777Z,12.90
2019-02-04T14:18:05.654Z,13.43
2019-02-04T14:20:34.235Z,13.23
2019-02-04T14:23:02.826Z,13.73
2019-02-04T14:25:31.528Z,15.17
2019-02-04T14:28:02.950Z,15.73
2019-02-04T14:30:31.981Z,15.47
2019-02-04T14:33:00.555Z,16.17
2019-02-04T14:35:29.143Z,14.43
2019-02-04T14:37:57.983Z,14.83
2019-02-04T14:40:26.965Z,13.17
2019-02-04T14:43:35.775Z,14.93
2019-02-04T14:46:26.141Z,17.07
2019-02-04T14:49:35.075Z,14.23
2019-02-04T14:52:25.260Z,15.43
2019-02-04T14:55:27.560Z,15.47
2019-02-04T14:58:13.779Z,16.80
2019-02-04T15:01:38.368Z,17.33
2019-02-04T15:04:30.855Z,18.07
2019-02-04T15:07:47.469Z,13.77
2019-02-04T15:10:44.592Z,16.50
2019-02-04T15:13:39.132Z,14.47
2019-02-04T15:16:32.125Z,17.10
2019-02-04T15:19:55.030Z,15.77
2019-02-04T15:22:47.432Z,14.23
2019-02-04T15:25:57.652Z,13.77
2019-02-04T15:28:55.186Z,16.03
2019-02-04T15:31:33.595Z,13.53
2019-02-04T15:34:39.721Z,17.13
2019-02-04T15:37:27.686Z,13.40
2019-02-04T15:40:12.112Z,17.90
2019-02-04T15:43:04.205Z,16.47
2019-02-04T15:46:12.449Z,18.27
2019-02-04T15:48:54.116Z,17.20
2019-02-04T15:51:28.023Z,16.93
2019-02-04T15:53:58.153Z,16.33
2019-02-04T15:56:26.744Z,18.50
2019-02-04T15:58:55.336Z,17.37
2019-02-04T16:01:23.923Z,16.83
2019-02-04T16:03:52.499Z,20.03
2019-02-04T16:06:21.059Z,16.90
2019-02-04T16:08:49.848Z,16.53
2019-02-04T16:11:18.529Z,18.27
2019-02-04T16:13:47.311Z,17.70
2019-02-04T16:16:15.937Z,14.57
2019-02-04T16:18:44.597Z,16.33
2019-02-04T16:21:13.184Z,16.03
2019-02-04T16:23:42.294Z,14.63
2019-02-04T16:26:10.871Z,15.37
2019-02-04T16:28:39.443Z,15.33
2019-02-04T16:31:08.601Z,17.10
2019-02-04T16:33:37.168Z,17.80
2019-02-04T16:36:05.784Z,17.67
2019-02-04T16:38:34.385Z,15.90
2019-02-04T16:41:02.980Z,17.27
2019-02-04T16:43:50.876Z,15.33
2019-02-04T16:46:19.534Z,17.07
2019-02-04T16:48:48.375Z,17.63
2019-02-04T16:51:17.618Z,17.33
2019-02-04T16:53:47.346Z,17.50
2019-02-04T16:56:15.969Z,19.70
2019-02-04T16:58:44.551Z,21.10
2019-02-04T17:01:13.187Z,20.10
2019-02-04T17:03:41.865Z,18.77
2019-02-04T17:06:10.471Z,23.37
2019-02-04T17:08:39.083Z,21.07
2019-02-04T17:11:07.670Z,20.63
2019-02-04T17:13:36.256Z,25.80
2019-02-04T17:16:05.177Z,19.80
2019-02-04T17:18:33.907Z,20.13
2019-02-04T17:21:02.522Z,21.30
2019-02-04T17:23:31.199Z,23.90
2019-02-04T17:25:59.904Z,23.70
2019-02-04T17:28:28.547Z,23.10
2019-02-04T17:30:57.134Z,19.83
2019-02-04T17:33:25.721Z,22.67
2019-02-04T17:35:54.336Z,22.23
2019-02-04T17:38:23.310Z,21.03
2019-02-04T17:40:51.904Z,22.40
2019-02-04T17:43:20.493Z,26.33
2019-02-04T17:45:51.685Z,20.80
2019-02-04T17:48:20.365Z,25.20
2019-02-04T17:50:49.509Z,20.90
2019-02-04T17:53:18.554Z,25.33
2019-02-04T17:55:47.512Z,24.27
2019-02-04T17:58:16.122Z,22.90
2019-02-04T18:00:50.071Z,26.27
2019-02-04T18:03:18.864Z,21.33
2019-02-04T18:05:47.559Z,24.30
2019-02-04T18:08:16.781Z,26.23
2019-02-04T18:10:45.383Z,26.03
2019-02-04T18:13:14.039Z,26.13
2019-02-04T18:15:42.652Z,24.60
2019-02-04T18:18:11.253Z,24.77
2019-02-04T18:20:39.856Z,23.50
2019-02-04T18:23:11.226Z,24.83
2019-02-04T18:25:39.147Z,23.50
2019-02-04T18:28:07.764Z,27.77
2019-02-04T18:30:36.711Z,26.00
2019-02-04T18:33:05.299Z,24.97
2019-02-04T18:35:34.364Z,26.77
2019-02-04T18:38:02.965Z,29.50
2019-02-04T18:40:31.559Z,25.47
2019-02-04T18:43:00.155Z,27.33
2019-02-04T18:45:29.884Z,29.63
2019-02-04T18:47:58.468Z,30.60
2019-02-04T18:50:27.560Z,28.10
2019-02-04T18:52:56.213Z,36.30
2019-02-04T18:55:27.204Z,34.60
2019-02-04T18:57:55.811Z,32.23
2019-02-04T19:00:44.077Z,27.77
2019-02-04T19:03:17.622Z,31.53
2019-02-04T19:05:47.620Z,31.43
2019-02-04T19:08:37.455Z,28.60
2019-02-04T19:10:56.265Z,32.97
2019-02-04T19:13:35.859Z,32.17
2019-02-04T19:15:56.393Z,33.50
2019-02-04T19:18:25.220Z,34.40
2019-02-04T19:20:56.427Z,34.70
2019-02-04T19:23:27.039Z,34.57
2019-02-04T19:25:55.398Z,34.87
2019-02-04T19:28:23.979Z,32.67
2019-02-04T19:31:31.253Z,38.53
2019-02-04T19:33:59.920Z,38.87
2019-02-04T19:36:28.510Z,36.43
2019-02-04T19:38:57.102Z,36.83
2019-02-04T19:41:25.694Z,36.33
2019-02-04T19:43:54.284Z,40.90
2019-02-04T19:46:23.153Z,41.67
2019-02-04T19:48:51.761Z,39.70
2019-02-04T19:51:20.645Z,35.33
2019-02-04T19:53:49.488Z,35.50
2019-02-04T19:56:18.435Z,40.57
2019-02-04T19:58:47.099Z,36.47
2019-02-04T20:01:15.690Z,42.37
2019-02-04T20:03:44.280Z,39.70
2019-02-04T20:06:13.248Z,42.13
2019-02-04T20:08:41.879Z,34.87
2019-02-04T20:11:10.483Z,42.60
2019-02-04T20:13:39.072Z,44.20
2019-02-04T20:16:07.753Z,38.77
2019-02-04T20:18:36.343Z,41.87
2019-02-04T20:21:05.097Z,40.97
2019-02-04T20:23:33.739Z,40.80
2019-02-04T20:26:02.341Z,42.40
2019-02-04T20:28:31.211Z,36.43
2019-02-04T20:30:59.834Z,35.53
2019-02-04T20:33:28.389Z,45.73
2019-02-04T20:35:57.028Z,43.77
2019-02-04T20:38:27.376Z,42.37
2019-02-04T20:40:56.037Z,44.80
2019-02-04T20:43:24.654Z,40.17
2019-02-04T20:45:53.211Z,47.10
2019-02-04T20:48:21.801Z,43.17
2019-02-04T20:50:50.491Z,49.50
2019-02-04T20:53:38.421Z,46.03
2019-02-04T20:56:07.020Z,44.10
2019-02-04T20:58:35.596Z,45.67
2019-02-04T21:01:04.296Z,47.43
2019-02-04T21:03:32.899Z,47.83
2019-02-04T21:06:01.969Z,44.60
2019-02-04T21:08:30.561Z,43.47
2019-02-04T21:10:59.187Z,47.57
2019-02-04T21:13:27.871Z,44.47
2019-02-04T21:15:56.473Z,53.37
2019-02-04T21:18:25.091Z,48.07
2019-02-04T21:20:53.676Z,44.20
2019-02-04T21:23:22.265Z,44.50
2019-02-04T21:25:50.892Z,48.80
2019-02-04T21:28:19.504Z,41.20
2019-02-04T21:30:48.227Z,45.80
2019-02-04T21:33:16.864Z,41.63
2019-02-04T21:35:45.500Z,51.23
2019-02-04T21:38:14.642Z,50.27
2019-02-04T21:40:43.223Z,45.57
2019-02-04T21:43:11.819Z,44.87
2019-02-04T21:45:40.405Z,45.87
2019-02-04T21:48:09.032Z,40.60
2019-02-04T21:50:37.610Z,43.33
2019-02-04T21:53:06.725Z,47.77
2019-02-04T21:55:35.352Z,45.37
2019-02-04T21:58:04.332Z,41.23
2019-02-04T22:00:35.163Z,43.10
2019-02-04T22:03:03.747Z,44.53
2019-02-04T22:05:33.347Z,41.73
2019-02-04T22:08:02.427Z,37.33
2019-02-04T22:10:31.070Z,38.03
2019-02-04T22:12:59.923Z,43.47
2019-02-04T22:15:28.592Z,42.87
2019-02-04T22:17:57.224Z,41.77
2019-02-04T22:20:25.791Z,45.73
2019-02-04T22:22:54.440Z,46.67
2019-02-04T22:25:23.573Z,42.10
2019-02-04T22:27:52.209Z,43.67
2019-02-04T22:30:22.658Z,44.67
2019-02-04T22:32:51.276Z,41.30
2019-02-04T22:35:19.853Z,47.00
2019-02-04T22:37:48.559Z,43.73
2019-02-04T22:40:22.122Z,45.70
2019-02-04T22:42:50.798Z,43.73
2019-02-04T22:45:19.408Z,40.83
2019-02-04T22:47:48.076Z,43.80
2019-02-04T22:50:21.265Z,38.53
2019-02-04T22:52:49.940Z,46.20
2019-02-04T22:55:31.093Z,43.27
2019-02-04T22:57:50.340Z,42.90
2019-02-04T23:00:45.215Z,41.43
2019-02-04T23:03:14.524Z,42.97
2019-02-04T23:05:43.177Z,36.73
2019-02-04T23:08:11.778Z,37.17
2019-02-04T23:10:40.390Z,41.30
2019-02-04T23:13:09.096Z,36.43
2019-02-04T23:15:38.021Z,40.20
2019-02-04T23:18:06.740Z,39.87
2019-02-04T23:20:35.314Z,45.73
2019-02-04T23:23:04.182Z,38.50
2019-02-04T23:25:43.122Z,44.63
2019-02-04T23:28:03.216Z,44.37
2019-02-04T23:30:32.006Z,41.63
2019-02-04T23:33:00.612Z,40.13
2019-02-04T23:35:29.210Z,45.77
2019-02-04T23:37:57.791Z,45.00
2019-02-04T23:40:26.386Z,44.90
2019-02-04T23:42:54.964Z,44.17
2019-02-04T23:45:26.539Z,45.53
2019-02-04T23:47:55.399Z,35.03
2019-02-04T23:50:23.986Z,43.00
2019-02-04T23:52:52.580Z,45.07
2019-02-04T23:55:21.244Z,50.47
2019-02-04T23:57:49.888Z,44.70
